• Join FlightAware (Why Join?)
  • Login
  • US Flag 
02:54AM EST


 

Airport Tracker/Info


-or-


 

Live Flight TrackerFlight Track Log ✈ N8182E ✈ 02-May-2012 ✈ KORL - KLAL

Flight Track Log - Related Links

Times and Time Zones

All times are in EDT time to prevent confusion due to time zone crossing. See the N8182E flight status page for this flight to view local times or setup timezone preferences in your user account.

Time Position Orientation Groundspeed Altitude Reporting Facility
EDT Latitude Longitude Course Direction KTS MPH feet Rate Location/Type
06:18PM 28.5500 -81.3167 270° West 91 105 700  Level Orlando TRACON
06:19PM 28.5500 -81.3500 240° Southwest 95 109 1,300 600 Climbing Orlando TRACON
06:20PM 28.5333 -81.3833 270° West 90 104 1,900 545 Climbing Orlando TRACON
06:21PM 28.5333 -81.4000 240° Southwest 102 117 2,400 347 Climbing Orlando TRACON
06:22PM 28.5167 -81.4333 221° Southwest 112 129 2,600 400 Climbing Orlando TRACON
06:23PM 28.5000 -81.4500 240° Southwest 98 113 3,200 550 Climbing Orlando TRACON
06:24PM 28.4833 -81.4833 221° Southwest 96 110 3,700 550 Climbing Orlando TRACON
06:25PM 28.4667 -81.5000 221° Southwest 91 105 4,300 350 Climbing Orlando TRACON
06:26PM 28.4500 -81.5167 221° Southwest 100 115 4,400 100 Climbing Orlando TRACON
06:27PM 28.4167 -81.5500 221° Southwest 107 123 4,500  Climbing Orlando TRACON
06:28PM 28.4000 -81.5667 240° Southwest 112 129 4,400 -50 Descending Orlando TRACON
06:29PM 28.3833 -81.6000 240° Southwest 109 125 4,400  Level Orlando TRACON
06:30PM 28.3667 -81.6333 221° Southwest 108 124 4,400  Level Orlando TRACON
06:31PM 28.3500 -81.6500 240° Southwest 104 120 4,400  Level Orlando TRACON
06:32PM 28.3333 -81.6833 204° Southwest 104 120 4,400  Level Orlando TRACON
06:33PM 28.3000 -81.7000 240° Southwest 106 122 4,400 50 Level Orlando TRACON
06:34PM 28.2833 -81.7333 221° Southwest 106 122 4,500 50 Climbing Orlando TRACON
06:35PM 28.2667 -81.7500 221° Southwest 105 121 4,500 -38 Level Orlando TRACON
06:37PM 28.2333 -81.7833 240° Southwest 107 123 4,400  Descending Tampa TRACON
06:38PM 28.2167 -81.8167 210° Southwest 105 121 4,500 -67 Climbing Tampa TRACON
06:40PM 28.1667 -81.8500 240° Southwest 106 122 4,200 -232 Descending Tampa TRACON
06:41PM 28.1500 -81.8833 204° Southwest 105 121 3,800 -350 Descending Tampa TRACON
06:42PM 28.1167 -81.9000 221° Southwest 107 123 3,500 -403 Descending Tampa TRACON
06:43PM 28.1000 -81.9167 240° Southwest 107 123 3,000 -397 Descending Tampa TRACON
06:44PM 28.0833 -81.9500 204° Southwest 108 124 2,700 -397 Descending Tampa TRACON
06:45PM 28.0500 -81.9667 221° Southwest 110 127 2,200 -450 Descending Tampa TRACON
06:46PM 28.0333 -81.9833 221° Southwest 111 128 1,800 -500 Descending Tampa TRACON
06:47PM 28.0167 -82.0000 270° West 99 114 1,200 -450 Descending Tampa TRACON
06:48PM 28.0167 -82.0333 221° Southwest 96 110 900 -250 Descending Tampa TRACON
06:49PM 28.0000 -82.0500 221° Southwest 95 109 700 -200 Descending Tampa TRACON